Time;durP1;ratioP1;P1;durP2;ratioP2;P2;SDS_P1;SDS_P2;PMS_P1;PMS_P2;Temp;Humidity;BMP_temperature;BMP_pressure;BME280_temperature;BME280_humidity;BME280_pressure;Samples;Min_cycle;Max_cycle;Signal;HPM_P1;HPM_P2
2022/01/14 00:01:45;;;;;;;29.27;12.43;;;;;;;;;;4889070;29;20364;-80
2022/01/14 00:04:11;;;;;;;24.13;11.48;;;;;;;;;;4888941;29;20114;-80
2022/01/14 00:06:37;;;;;;;28.60;12.45;;;;;;;;;;4889083;29;20353;-82
2022/01/14 00:09:09;;;;;;;21.48;11.65;;;;;;;;;;4904903;29;20043;-80
2022/01/14 00:11:49;;;;;;;25.13;11.38;;;;;;;;;;4884152;29;20118;-79
2022/01/14 00:16:42;;;;;;;22.42;11.68;;;;;;;;;;4904337;29;20040;-77
2022/01/14 00:19:08;;;;;;;24.77;11.50;;;;;;;;;;4889171;29;20047;-80
2022/01/14 00:21:36;;;;;;;23.40;11.38;;;;;;;;;;4888612;29;20092;-79
2022/01/14 00:32:38;;;;;;;25.10;12.48;;;;;;;;;;4902697;29;20475;-79
2022/01/14 00:35:04;;;;;;;30.80;12.57;;;;;;;;;;4903266;29;20040;-79
2022/01/14 00:37:30;;;;;;;26.83;12.52;;;;;;;;;;4903509;29;20040;-79
2022/01/14 00:39:56;;;;;;;24.20;12.00;;;;;;;;;;4888850;29;20040;-80
2022/01/14 00:42:22;;;;;;;29.30;12.48;;;;;;;;;;4903714;29;20056;-79
2022/01/14 00:44:49;;;;;;;28.08;12.57;;;;;;;;;;4885651;29;20452;-78
2022/01/14 00:47:15;;;;;;;20.23;10.98;;;;;;;;;;4895399;29;20040;-78
2022/01/14 00:49:41;;;;;;;26.98;13.40;;;;;;;;;;4906612;29;20549;-80
2022/01/14 00:52:07;;;;;;;26.40;11.70;;;;;;;;;;4906731;29;20050;-78
2022/01/14 00:54:33;;;;;;;24.42;11.50;;;;;;;;;;4906822;29;20078;-80
2022/01/14 00:59:34;;;;;;;24.42;12.10;;;;;;;;;;4903785;29;20052;-79
2022/01/14 01:02:01;;;;;;;22.55;12.02;;;;;;;;;;4886795;29;20048;-78
2022/01/14 01:04:31;;;;;;;30.83;12.88;;;;;;;;;;4888078;29;20449;-81
2022/01/14 01:06:58;;;;;;;25.15;12.57;;;;;;;;;;4887845;29;20043;-80
2022/01/14 01:09:25;;;;;;;26.55;13.60;;;;;;;;;;4903399;29;20127;-79
2022/01/14 01:12:05;;;;;;;29.25;13.63;;;;;;;;;;4886989;29;20472;-78
2022/01/14 01:14:40;;;;;;;31.67;13.00;;;;;;;;;;4887304;29;20127;-81
2022/01/14 01:17:07;;;;;;;25.42;12.80;;;;;;;;;;4887756;29;20040;-78
2022/01/14 01:19:33;;;;;;;25.52;13.00;;;;;;;;;;4903175;29;20035;-80
2022/01/14 01:21:59;;;;;;;23.88;13.30;;;;;;;;;;4887553;29;20036;-77
2022/01/14 01:24:25;;;;;;;30.80;13.50;;;;;;;;;;4887540;29;20040;-80
2022/01/14 01:26:52;;;;;;;28.20;13.73;;;;;;;;;;4886869;29;20394;-79
2022/01/14 01:31:53;;;;;;;25.23;14.40;;;;;;;;;;4901511;29;20127;-80
2022/01/14 01:34:19;;;;;;;28.88;13.48;;;;;;;;;;4902901;29;20076;-79
2022/01/14 01:36:46;;;;;;;33.05;13.70;;;;;;;;;;4887079;29;20042;-78
2022/01/14 01:39:14;;;;;;;28.65;13.95;;;;;;;;;;4902943;29;20036;-78
2022/01/14 01:41:41;;;;;;;26.35;13.55;;;;;;;;;;4911125;29;20047;-78
2022/01/14 01:44:08;;;;;;;25.02;14.40;;;;;;;;;;4886349;29;20048;-80
2022/01/14 01:46:37;;;;;;;25.27;14.13;;;;;;;;;;4902485;29;20076;-77
2022/01/14 01:49:04;;;;;;;27.13;14.50;;;;;;;;;;4898826;29;20072;-79
2022/01/14 01:51:30;;;;;;;23.95;13.57;;;;;;;;;;4899603;29;20092;-79
2022/01/14 01:53:56;;;;;;;24.98;14.23;;;;;;;;;;4869424;29;20048;-79
2022/01/14 01:56:23;;;;;;;23.23;14.32;;;;;;;;;;4886598;29;20342;-80
2022/01/14 01:58:49;;;;;;;30.20;14.48;;;;;;;;;;4902628;29;20062;-78
2022/01/14 02:01:15;;;;;;;24.35;14.88;;;;;;;;;;4886214;29;20051;-79
2022/01/14 02:03:41;;;;;;;27.35;15.23;;;;;;;;;;4901188;29;20377;-82
2022/01/14 02:06:08;;;;;;;28.42;15.25;;;;;;;;;;4886904;29;20067;-78
2022/01/14 02:08:34;;;;;;;26.95;15.10;;;;;;;;;;4901943;29;20115;-79
2022/01/14 02:11:01;;;;;;;22.92;14.85;;;;;;;;;;4886245;29;20474;-81
2022/01/14 02:13:27;;;;;;;27.90;15.27;;;;;;;;;;4902049;29;20054;-78
2022/01/14 02:23:48;;;;;;;28.35;15.27;;;;;;;;;;4901599;29;20115;-78
2022/01/14 02:26:16;;;;;;;29.67;15.55;;;;;;;;;;4902316;29;20039;-78
2022/01/14 02:28:42;;;;;;;25.95;14.70;;;;;;;;;;4901829;29;20064;-77
2022/01/14 02:31:09;;;;;;;26.13;14.60;;;;;;;;;;4917116;29;20059;-80
2022/01/14 02:33:35;;;;;;;26.75;14.52;;;;;;;;;;4901236;29;20115;-81
2022/01/14 02:36:02;;;;;;;24.35;14.45;;;;;;;;;;4915285;29;20498;-79
2022/01/14 02:38:29;;;;;;;24.95;14.57;;;;;;;;;;4907486;29;20482;-78
2022/01/14 02:40:55;;;;;;;26.15;15.57;;;;;;;;;;4901911;29;20079;-80
2022/01/14 02:43:22;;;;;;;30.27;15.35;;;;;;;;;;4900233;29;20055;-78
2022/01/14 02:45:54;;;;;;;28.95;14.65;;;;;;;;;;4886596;29;20040;-77
2022/01/14 02:48:21;;;;;;;23.95;14.70;;;;;;;;;;4901739;29;20036;-78
2022/01/14 02:56:03;;;;;;;27.60;15.52;;;;;;;;;;4900970;29;20087;-80
2022/01/14 02:58:31;;;;;;;24.95;15.38;;;;;;;;;;4900652;29;20102;-78
2022/01/14 03:01:01;;;;;;;25.30;14.50;;;;;;;;;;4900754;29;20445;-80
2022/01/14 03:03:29;;;;;;;26.17;15.02;;;;;;;;;;4901344;29;20099;-77
2022/01/14 03:05:56;;;;;;;22.67;13.18;;;;;;;;;;4900752;29;20035;-80
2022/01/14 03:08:22;;;;;;;23.05;13.98;;;;;;;;;;4900368;29;20051;-79
2022/01/14 03:10:52;;;;;;;25.80;14.32;;;;;;;;;;4885746;29;20036;-80
2022/01/14 03:13:18;;;;;;;22.05;13.93;;;;;;;;;;4885520;29;20052;-78
2022/01/14 03:15:44;;;;;;;24.95;14.68;;;;;;;;;;4900677;29;20104;-80
2022/01/14 03:18:10;;;;;;;24.77;15.05;;;;;;;;;;4885195;29;20051;-79
2022/01/14 03:20:50;;;;;;;22.92;14.32;;;;;;;;;;4885272;29;20036;-79
2022/01/14 03:23:17;;;;;;;25.55;13.82;;;;;;;;;;4885182;29;20043;-78
2022/01/14 03:25:55;;;;;;;23.70;13.23;;;;;;;;;;4885698;29;20126;-79
2022/01/14 03:28:24;;;;;;;27.38;14.57;;;;;;;;;;4916623;29;20056;-78
2022/01/14 03:30:52;;;;;;;27.40;13.65;;;;;;;;;;4901024;29;20090;-79
2022/01/14 03:33:19;;;;;;;23.13;13.77;;;;;;;;;;4900786;29;20036;-78
2022/01/14 03:35:45;;;;;;;23.35;14.00;;;;;;;;;;4901017;29;20052;-80
2022/01/14 03:38:11;;;;;;;26.42;15.38;;;;;;;;;;4917507;29;20059;-80
2022/01/14 03:40:38;;;;;;;25.42;14.57;;;;;;;;;;4900898;29;20032;-79
2022/01/14 03:43:04;;;;;;;28.00;14.15;;;;;;;;;;4885158;29;20076;-78
2022/01/14 03:45:30;;;;;;;20.83;13.50;;;;;;;;;;4885754;29;20032;-80
2022/01/14 03:47:56;;;;;;;24.40;14.75;;;;;;;;;;4885323;29;20051;-80
2022/01/14 03:50:22;;;;;;;27.83;15.63;;;;;;;;;;4900595;29;20078;-79
2022/01/14 03:52:48;;;;;;;27.63;14.40;;;;;;;;;;4885207;29;20039;-78
2022/01/14 03:55:15;;;;;;;25.52;14.27;;;;;;;;;;4900222;29;20484;-79
2022/01/14 03:57:41;;;;;;;28.17;14.27;;;;;;;;;;4885462;29;20098;-79
2022/01/14 04:00:07;;;;;;;26.80;15.02;;;;;;;;;;4874236;29;20032;-78
2022/01/14 04:02:33;;;;;;;22.60;14.65;;;;;;;;;;4885330;29;20036;-80
2022/01/14 04:04:59;;;;;;;27.98;15.18;;;;;;;;;;4885736;29;20044;-79
2022/01/14 04:07:25;;;;;;;26.00;14.73;;;;;;;;;;4900661;29;20444;-81
2022/01/14 04:09:51;;;;;;;25.60;14.27;;;;;;;;;;4900949;29;20063;-78
2022/01/14 04:12:31;;;;;;;27.10;14.13;;;;;;;;;;4887489;29;20107;-78
2022/01/14 04:17:23;;;;;;;24.75;14.73;;;;;;;;;;4904299;29;20103;-79
2022/01/14 04:19:49;;;;;;;23.83;14.55;;;;;;;;;;4888588;29;20042;-79
2022/01/14 04:22:15;;;;;;;25.73;15.23;;;;;;;;;;4887415;29;20036;-81
2022/01/14 04:24:41;;;;;;;25.98;15.88;;;;;;;;;;4903898;29;20052;-80
2022/01/14 04:27:07;;;;;;;25.52;15.50;;;;;;;;;;4888330;29;20463;-81
2022/01/14 04:29:33;;;;;;;28.52;15.00;;;;;;;;;;4887238;29;20337;-80
2022/01/14 04:32:00;;;;;;;22.65;15.07;;;;;;;;;;4903093;29;20036;-78
2022/01/14 04:34:26;;;;;;;24.58;15.05;;;;;;;;;;4918468;29;20052;-80
2022/01/14 04:36:52;;;;;;;25.23;15.32;;;;;;;;;;4887894;29;20115;-80
2022/01/14 04:39:18;;;;;;;24.70;15.20;;;;;;;;;;4904069;29;20048;-79
2022/01/14 04:41:44;;;;;;;26.42;14.98;;;;;;;;;;4903763;29;20103;-82
2022/01/14 04:44:10;;;;;;;26.17;15.00;;;;;;;;;;4888188;29;20086;-79
2022/01/14 04:49:05;;;;;;;25.98;16.10;;;;;;;;;;4903978;29;20444;-79
2022/01/14 04:51:31;;;;;;;23.67;14.35;;;;;;;;;;4903135;29;20044;-78
2022/01/14 04:53:58;;;;;;;27.38;14.40;;;;;;;;;;4903979;29;20044;-81
2022/01/14 04:56:24;;;;;;;27.95;14.65;;;;;;;;;;4887877;29;20044;-80
2022/01/14 04:58:50;;;;;;;29.75;14.68;;;;;;;;;;4902131;29;20040;-79
2022/01/14 05:01:16;;;;;;;24.42;14.40;;;;;;;;;;4902713;29;20043;-78
2022/01/14 05:03:42;;;;;;;25.60;14.15;;;;;;;;;;4903681;29;20456;-80
2022/01/14 05:06:08;;;;;;;27.38;14.48;;;;;;;;;;4903410;29;20040;-80
2022/01/14 05:08:37;;;;;;;24.98;14.38;;;;;;;;;;4887726;29;20414;-77
2022/01/14 05:11:21;;;;;;;24.13;14.15;;;;;;;;;;4904072;29;20048;-76
2022/01/14 05:13:47;;;;;;;24.40;13.25;;;;;;;;;;4887552;29;20469;-79
2022/01/14 05:16:13;;;;;;;26.80;14.45;;;;;;;;;;4903218;29;20095;-80
2022/01/14 05:18:40;;;;;;;27.23;13.93;;;;;;;;;;4903259;29;20036;-78
2022/01/14 05:21:07;;;;;;;28.15;15.32;;;;;;;;;;4887382;29;20131;-80
2022/01/14 05:23:33;;;;;;;26.50;14.23;;;;;;;;;;4902883;29;20040;-78
2022/01/14 05:25:59;;;;;;;23.48;13.63;;;;;;;;;;4887500;29;20040;-79
2022/01/14 05:28:25;;;;;;;24.63;13.32;;;;;;;;;;4901098;29;20040;-79
2022/01/14 05:30:51;;;;;;;22.15;12.60;;;;;;;;;;4887742;29;20040;-77
2022/01/14 05:33:18;;;;;;;21.55;12.10;;;;;;;;;;4887485;29;20040;-79
2022/01/14 05:35:44;;;;;;;24.63;11.68;;;;;;;;;;4903070;29;20076;-81
2022/01/14 05:38:10;;;;;;;22.67;11.25;;;;;;;;;;4903207;29;20044;-78
2022/01/14 05:40:36;;;;;;;19.65;11.20;;;;;;;;;;4888140;29;20458;-81
2022/01/14 05:43:02;;;;;;;22.42;10.45;;;;;;;;;;4887226;29;20043;-81
2022/01/14 05:45:29;;;;;;;20.83;10.07;;;;;;;;;;4887365;29;20047;-80
2022/01/14 05:47:55;;;;;;;23.10;10.10;;;;;;;;;;4886843;29;20048;-80
2022/01/14 05:50:22;;;;;;;22.40;11.15;;;;;;;;;;4887268;29;20040;-81
2022/01/14 05:52:49;;;;;;;20.52;10.48;;;;;;;;;;4886592;29;20080;-80
2022/01/14 05:55:16;;;;;;;22.48;11.27;;;;;;;;;;4902574;29;20432;-78
2022/01/14 05:57:42;;;;;;;20.45;9.95;;;;;;;;;;4887349;29;20185;-80
2022/01/14 06:00:12;;;;;;;19.75;9.60;;;;;;;;;;4901070;29;20040;-80
2022/01/14 06:02:38;;;;;;;20.75;9.63;;;;;;;;;;4902029;29;20040;-79
2022/01/14 06:05:05;;;;;;;26.88;9.60;;;;;;;;;;4886517;29;20043;-81
2022/01/14 06:07:31;;;;;;;18.70;8.90;;;;;;;;;;4901657;29;20126;-81
2022/01/14 06:09:57;;;;;;;20.95;8.50;;;;;;;;;;4886845;29;20059;-79
2022/01/14 06:12:23;;;;;;;16.85;7.82;;;;;;;;;;4886460;29;20418;-79
2022/01/14 06:14:49;;;;;;;17.23;8.45;;;;;;;;;;4901916;29;20103;-79
2022/01/14 06:17:15;;;;;;;18.58;8.63;;;;;;;;;;4886405;29;20349;-80
2022/01/14 06:19:41;;;;;;;14.90;8.05;;;;;;;;;;4886648;29;20040;-79
2022/01/14 06:22:08;;;;;;;22.60;8.63;;;;;;;;;;4886425;29;20433;-81
2022/01/14 06:24:34;;;;;;;21.25;8.65;;;;;;;;;;4902085;29;20092;-78
2022/01/14 06:27:01;;;;;;;21.83;8.48;;;;;;;;;;4901931;29;20040;-81
2022/01/14 06:29:27;;;;;;;18.10;7.53;;;;;;;;;;4885156;29;20044;-80
2022/01/14 06:31:53;;;;;;;19.65;7.90;;;;;;;;;;4901696;29;20115;-78
2022/01/14 06:34:19;;;;;;;20.15;7.75;;;;;;;;;;4904162;29;20046;-79
2022/01/14 06:36:45;;;;;;;18.23;7.75;;;;;;;;;;4901336;29;20039;-80
2022/01/14 06:39:11;;;;;;;16.75;7.35;;;;;;;;;;4901932;29;20044;-80
2022/01/14 06:41:38;;;;;;;19.20;7.28;;;;;;;;;;4885913;29;20440;-78
2022/01/14 06:44:05;;;;;;;18.85;7.40;;;;;;;;;;4902301;29;20094;-77
2022/01/14 06:46:31;;;;;;;16.73;6.88;;;;;;;;;;4901711;29;20062;-79
2022/01/14 06:48:57;;;;;;;17.92;7.63;;;;;;;;;;4898725;29;20036;-78
2022/01/14 06:51:23;;;;;;;18.58;7.07;;;;;;;;;;4901116;29;20059;-78
2022/01/14 06:53:49;;;;;;;14.07;6.93;;;;;;;;;;4886066;29;20032;-76
2022/01/14 06:56:16;;;;;;;18.02;7.05;;;;;;;;;;4885593;29;20056;-80
2022/01/14 06:58:42;;;;;;;16.70;7.10;;;;;;;;;;4900761;29;20036;-81
2022/01/14 07:01:08;;;;;;;17.05;8.13;;;;;;;;;;4885570;29;20036;-78
2022/01/14 07:03:34;;;;;;;15.65;8.18;;;;;;;;;;4901305;29;20040;-78
2022/01/14 07:06:01;;;;;;;14.70;7.72;;;;;;;;;;4917941;29;20083;-77
2022/01/14 07:08:27;;;;;;;16.45;7.82;;;;;;;;;;4901150;29;20055;-78
2022/01/14 07:10:53;;;;;;;16.38;7.53;;;;;;;;;;4901229;29;20044;-76
2022/01/14 07:13:19;;;;;;;16.17;7.63;;;;;;;;;;4886001;29;20123;-77
2022/01/14 07:15:45;;;;;;;15.77;7.25;;;;;;;;;;4885655;29;20119;-78
2022/01/14 07:18:12;;;;;;;17.75;7.88;;;;;;;;;;4901236;29;20036;-78
2022/01/14 07:20:38;;;;;;;11.55;6.97;;;;;;;;;;4885684;29;20036;-76
2022/01/14 07:23:04;;;;;;;12.65;7.20;;;;;;;;;;4901340;29;20106;-78
2022/01/14 07:25:30;;;;;;;11.32;6.88;;;;;;;;;;4885948;29;20130;-77
2022/01/14 07:27:57;;;;;;;12.32;6.75;;;;;;;;;;4916536;29;20044;-77
2022/01/14 07:30:23;;;;;;;14.05;7.68;;;;;;;;;;4885613;29;20040;-77
2022/01/14 07:32:50;;;;;;;15.55;7.22;;;;;;;;;;4885780;29;20044;-78
2022/01/14 07:35:16;;;;;;;15.60;6.60;;;;;;;;;;4900421;29;20054;-79
2022/01/14 07:37:42;;;;;;;13.75;6.07;;;;;;;;;;4900601;29;20055;-78
2022/01/14 07:40:09;;;;;;;11.43;5.78;;;;;;;;;;4885589;29;20345;-79
2022/01/14 07:42:35;;;;;;;13.27;6.03;;;;;;;;;;4900708;29;20036;-78
2022/01/14 07:45:02;;;;;;;12.30;5.75;;;;;;;;;;4884394;29;20036;-78
2022/01/14 07:47:29;;;;;;;12.40;5.63;;;;;;;;;;4904235;29;20044;-80
2022/01/14 07:49:55;;;;;;;12.30;5.28;;;;;;;;;;4889339;29;20043;-77
2022/01/14 07:52:21;;;;;;;11.73;5.60;;;;;;;;;;4905018;29;20044;-76
2022/01/14 07:54:47;;;;;;;14.25;5.38;;;;;;;;;;4904588;29;20044;-76
2022/01/14 07:57:13;;;;;;;11.88;5.40;;;;;;;;;;4888279;29;20093;-80
2022/01/14 07:59:41;;;;;;;12.63;5.82;;;;;;;;;;4874820;29;20157;-78
2022/01/14 08:02:07;;;;;;;14.43;5.55;;;;;;;;;;4886242;29;20037;-77
2022/01/14 08:04:35;;;;;;;13.70;5.43;;;;;;;;;;4886527;29;20490;-80
2022/01/14 08:07:08;;;;;;;13.40;5.13;;;;;;;;;;4903988;29;20036;-78
2022/01/14 08:09:42;;;;;;;15.00;4.75;;;;;;;;;;4904425;29;20305;-79
2022/01/14 08:12:08;;;;;;;13.30;4.65;;;;;;;;;;4889103;29;20356;-80
2022/01/14 08:14:35;;;;;;;15.35;5.13;;;;;;;;;;4888630;29;20039;-82
2022/01/14 08:38:27;;;;;;;17.00;4.72;;;;;;;;;;4862440;29;20045;-81
2022/01/14 08:40:48;;;;;;;12.60;4.78;;;;;;;;;;4816208;29;20502;-80
2022/01/14 08:43:14;;;;;;;8.52;3.92;;;;;;;;;;4812334;29;20046;-76
2022/01/14 08:45:40;;;;;;;15.23;4.45;;;;;;;;;;4892435;29;20059;-77
2022/01/14 08:48:07;;;;;;;12.30;4.35;;;;;;;;;;4920413;29;20055;-78
2022/01/14 08:50:35;;;;;;;14.65;4.40;;;;;;;;;;4920232;29;20047;-77
2022/01/14 08:53:02;;;;;;;13.50;4.30;;;;;;;;;;4903516;29;20044;-74
2022/01/14 08:55:28;;;;;;;13.82;4.85;;;;;;;;;;4903743;29;20070;-78
2022/01/14 08:57:55;;;;;;;10.85;4.30;;;;;;;;;;4918734;29;20705;-78
2022/01/14 09:00:22;;;;;;;14.20;4.72;;;;;;;;;;4887694;29;20052;-78
2022/01/14 09:02:48;;;;;;;10.85;3.97;;;;;;;;;;4919769;29;20044;-76
2022/01/14 09:05:14;;;;;;;10.63;4.45;;;;;;;;;;4901618;29;20405;-78
2022/01/14 09:07:40;;;;;;;13.27;4.43;;;;;;;;;;4919318;29;20043;-78
2022/01/14 09:10:08;;;;;;;10.90;4.13;;;;;;;;;;4919925;29;20047;-78
2022/01/14 09:12:34;;;;;;;11.23;4.60;;;;;;;;;;4919530;29;20805;-79
2022/01/14 09:15:00;;;;;;;12.80;3.97;;;;;;;;;;4903775;29;20048;-77
2022/01/14 09:17:27;;;;;;;9.80;3.95;;;;;;;;;;4919534;29;20459;-78
2022/01/14 09:19:53;;;;;;;13.65;4.32;;;;;;;;;;4901179;29;20103;-78
2022/01/14 09:22:19;;;;;;;12.60;3.90;;;;;;;;;;4902785;29;20044;-77
2022/01/14 09:24:46;;;;;;;10.98;3.88;;;;;;;;;;4919808;29;20409;-78
2022/01/14 09:27:13;;;;;;;15.27;4.07;;;;;;;;;;4899984;29;20052;-79
2022/01/14 09:29:40;;;;;;;8.82;3.80;;;;;;;;;;4919640;29;20046;-78
2022/01/14 09:32:07;;;;;;;11.98;3.67;;;;;;;;;;4903824;29;20036;-79
2022/01/14 09:34:34;;;;;;;13.10;4.22;;;;;;;;;;4910415;29;20052;-78
2022/01/14 09:37:00;;;;;;;12.55;4.13;;;;;;;;;;4886540;29;20451;-79
2022/01/14 09:39:27;;;;;;;12.77;4.13;;;;;;;;;;4919557;29;20091;-79
2022/01/14 09:41:53;;;;;;;12.07;4.43;;;;;;;;;;4902739;29;20436;-78
2022/01/14 09:44:20;;;;;;;12.75;4.72;;;;;;;;;;4902806;29;20062;-78
2022/01/14 09:46:50;;;;;;;14.52;4.25;;;;;;;;;;4903051;29;20406;-78
2022/01/14 09:49:16;;;;;;;13.95;3.92;;;;;;;;;;4902913;29;20052;-78
2022/01/14 09:51:42;;;;;;;9.43;3.75;;;;;;;;;;4902964;29;20040;-78
2022/01/14 09:54:10;;;;;;;12.27;4.15;;;;;;;;;;4902324;29;20059;-78
2022/01/14 09:56:37;;;;;;;15.00;5.05;;;;;;;;;;4901880;29;20052;-78
2022/01/14 09:59:03;;;;;;;13.15;3.92;;;;;;;;;;4902287;29;20056;-79
2022/01/14 10:01:37;;;;;;;13.27;4.30;;;;;;;;;;4902443;29;20478;-78
2022/01/14 10:04:03;;;;;;;13.95;4.40;;;;;;;;;;4897145;29;20055;-78
2022/01/14 10:06:36;;;;;;;11.30;4.28;;;;;;;;;;4892647;29;20039;-78
2022/01/14 10:09:09;;;;;;;14.10;4.95;;;;;;;;;;4914341;29;20051;-78
2022/01/14 10:11:35;;;;;;;13.57;4.68;;;;;;;;;;4916690;29;20476;-78
2022/01/14 10:14:06;;;;;;;12.68;4.55;;;;;;;;;;4913580;29;20110;-78
2022/01/14 10:16:32;;;;;;;17.52;4.53;;;;;;;;;;4901878;29;20104;-74
2022/01/14 10:18:58;;;;;;;12.27;4.40;;;;;;;;;;4901507;29;20050;-80
2022/01/14 10:21:32;;;;;;;9.65;4.13;;;;;;;;;;4918567;29;20083;-78
2022/01/14 10:24:01;;;;;;;13.82;4.10;;;;;;;;;;4918762;29;20119;-77
2022/01/14 10:26:30;;;;;;;11.93;4.10;;;;;;;;;;4901405;29;20435;-78
2022/01/14 10:29:00;;;;;;;14.48;4.20;;;;;;;;;;4902309;29;20139;-77
2022/01/14 10:31:33;;;;;;;10.25;3.78;;;;;;;;;;4902196;29;20060;-79
2022/01/14 10:34:15;;;;;;;9.80;4.47;;;;;;;;;;4918161;29;20196;-77
2022/01/14 10:36:43;;;;;;;10.07;4.65;;;;;;;;;;4885789;29;20056;-77
2022/01/14 10:39:25;;;;;;;11.50;4.60;;;;;;;;;;4918070;29;20131;-77
2022/01/14 10:41:52;;;;;;;11.10;4.57;;;;;;;;;;4900418;29;20119;-78
2022/01/14 10:44:29;;;;;;;11.20;4.40;;;;;;;;;;4901048;29;20063;-76
2022/01/14 10:47:12;;;;;;;16.00;4.30;;;;;;;;;;4902800;29;20334;-77
2022/01/14 10:49:38;;;;;;;15.07;4.50;;;;;;;;;;4902132;29;20044;-77
2022/01/14 10:52:12;;;;;;;12.43;4.18;;;;;;;;;;4901982;29;20056;-81
2022/01/14 10:54:49;;;;;;;16.92;4.60;;;;;;;;;;4917916;29;20043;-81
2022/01/14 10:57:15;;;;;;;16.15;4.80;;;;;;;;;;4900989;29;20569;-74
2022/01/14 10:59:41;;;;;;;13.70;4.65;;;;;;;;;;4901613;29;20087;-82
2022/01/14 11:02:27;;;;;;;16.45;4.68;;;;;;;;;;4918269;29;20047;-75
2022/01/14 11:05:11;;;;;;;14.38;4.40;;;;;;;;;;4917764;29;20464;-78
2022/01/14 11:07:38;;;;;;;16.80;4.55;;;;;;;;;;4883900;29;20084;-77
2022/01/14 11:10:13;;;;;;;12.57;4.60;;;;;;;;;;4921348;29;20134;-77
2022/01/14 11:12:40;;;;;;;14.33;4.20;;;;;;;;;;4923147;29;20039;-78
2022/01/14 11:15:07;;;;;;;13.77;4.13;;;;;;;;;;4899475;29;20070;-79
2022/01/14 11:17:36;;;;;;;13.90;4.22;;;;;;;;;;4901114;29;20054;-77
2022/01/14 11:20:03;;;;;;;15.15;4.85;;;;;;;;;;4901421;29;20477;-76
2022/01/14 11:25:15;;;;;;;15.52;4.68;;;;;;;;;;4897032;29;20080;-78
2022/01/14 11:27:42;;;;;;;10.77;4.18;;;;;;;;;;4898370;29;20140;-77
2022/01/14 11:30:14;;;;;;;14.30;4.38;;;;;;;;;;4885159;29;20040;-77
2022/01/14 11:32:57;;;;;;;13.05;4.70;;;;;;;;;;4885387;29;20052;-77
2022/01/14 11:35:24;;;;;;;11.57;4.10;;;;;;;;;;4900922;29;20147;-78
2022/01/14 11:37:51;;;;;;;21.27;4.80;;;;;;;;;;4885439;29;20050;-77
2022/01/14 11:40:17;;;;;;;10.63;4.57;;;;;;;;;;4885944;29;20044;-78
2022/01/14 11:42:46;;;;;;;14.68;4.85;;;;;;;;;;4901011;29;20052;-78
2022/01/14 11:45:17;;;;;;;15.13;5.22;;;;;;;;;;4900896;29;20100;-77
2022/01/14 11:47:45;;;;;;;15.35;4.70;;;;;;;;;;4885406;29;20040;-82
2022/01/14 11:50:23;;;;;;;19.55;5.05;;;;;;;;;;4885267;29;20059;-76
2022/01/14 11:52:49;;;;;;;15.27;5.18;;;;;;;;;;4900950;29;20095;-78
2022/01/14 11:55:15;;;;;;;15.65;4.72;;;;;;;;;;4900101;29;20048;-77
2022/01/14 11:57:45;;;;;;;17.25;4.70;;;;;;;;;;4899360;29;20090;-77
2022/01/14 12:00:30;;;;;;;25.58;5.78;;;;;;;;;;4885807;29;20056;-77
2022/01/14 12:03:17;;;;;;;23.10;5.32;;;;;;;;;;4900858;29;20052;-77
2022/01/14 12:05:58;;;;;;;16.10;5.28;;;;;;;;;;4893886;29;20064;-76
2022/01/14 12:08:29;;;;;;;19.00;5.45;;;;;;;;;;4904143;29;20056;-78
2022/01/14 12:10:57;;;;;;;12.43;4.40;;;;;;;;;;4916801;29;20040;-77
2022/01/14 12:13:25;;;;;;;14.98;4.82;;;;;;;;;;4909578;29;20082;-77
2022/01/14 12:16:00;;;;;;;13.38;4.40;;;;;;;;;;4884982;29;20036;-78
2022/01/14 12:18:45;;;;;;;16.27;5.03;;;;;;;;;;4900768;29;20079;-78
2022/01/14 12:21:12;;;;;;;16.92;4.97;;;;;;;;;;4901283;29;20115;-77
2022/01/14 12:23:38;;;;;;;13.88;4.57;;;;;;;;;;4900742;29;20480;-77
2022/01/14 12:26:15;;;;;;;12.57;4.75;;;;;;;;;;4901162;29;20059;-77
2022/01/14 12:28:42;;;;;;;15.82;4.40;;;;;;;;;;4899880;29;20060;-77
2022/01/14 12:31:08;;;;;;;16.77;4.68;;;;;;;;;;4900671;29;20075;-78
2022/01/14 12:33:42;;;;;;;16.60;4.90;;;;;;;;;;4887493;29;20092;-77
2022/01/14 12:36:09;;;;;;;16.00;4.47;;;;;;;;;;4920983;29;20044;-76
2022/01/14 12:38:35;;;;;;;15.43;4.40;;;;;;;;;;4920564;29;20532;-78
2022/01/14 12:41:01;;;;;;;15.80;5.28;;;;;;;;;;4904101;29;20087;-81
2022/01/14 12:43:29;;;;;;;16.77;4.53;;;;;;;;;;4888341;29;20123;-77
2022/01/14 12:46:24;;;;;;;19.60;5.03;;;;;;;;;;4903723;29;20051;-76
2022/01/14 12:48:51;;;;;;;18.70;5.50;;;;;;;;;;4903038;29;20135;-76
2022/01/14 12:51:19;;;;;;;16.27;4.55;;;;;;;;;;4903750;29;20349;-76
2022/01/14 12:53:48;;;;;;;20.05;5.28;;;;;;;;;;4918606;29;20119;-76
2022/01/14 12:56:15;;;;;;;16.05;5.05;;;;;;;;;;4899894;29;20436;-76
2022/01/14 12:58:55;;;;;;;22.80;6.15;;;;;;;;;;4902635;29;20044;-76
2022/01/14 13:01:25;;;;;;;13.68;4.65;;;;;;;;;;4904037;29;20047;-75
2022/01/14 13:03:54;;;;;;;16.50;5.53;;;;;;;;;;4903811;29;20055;-75
2022/01/14 13:06:20;;;;;;;15.32;5.35;;;;;;;;;;4904244;29;20044;-75
2022/01/14 13:08:56;;;;;;;22.20;5.30;;;;;;;;;;4910036;29;20040;-76
2022/01/14 13:11:23;;;;;;;23.05;4.97;;;;;;;;;;4911931;29;20070;-77
2022/01/14 13:14:04;;;;;;;13.85;4.68;;;;;;;;;;4903286;29;20337;-75
2022/01/14 13:16:50;;;;;;;22.85;5.15;;;;;;;;;;4899817;29;20050;-75
2022/01/14 13:19:21;;;;;;;19.75;5.78;;;;;;;;;;4899947;29;20111;-76
2022/01/14 13:21:47;;;;;;;19.85;6.13;;;;;;;;;;4919849;29;20123;-76
2022/01/14 13:24:24;;;;;;;26.95;7.70;;;;;;;;;;4917884;29;20136;-75
2022/01/14 13:26:59;;;;;;;20.42;7.28;;;;;;;;;;4917079;29;20168;-77
2022/01/14 13:29:25;;;;;;;29.07;8.67;;;;;;;;;;4920105;29;20063;-77
2022/01/14 13:31:51;;;;;;;32.55;11.23;;;;;;;;;;4903357;29;20469;-76
2022/01/14 13:34:17;;;;;;;26.75;7.40;;;;;;;;;;4904533;29;20457;-76
2022/01/14 13:36:44;;;;;;;19.92;5.65;;;;;;;;;;4903042;29;20111;-76
2022/01/14 13:39:11;;;;;;;20.60;5.00;;;;;;;;;;4919708;29;20079;-75
2022/01/14 13:41:40;;;;;;;21.00;5.65;;;;;;;;;;4886588;29;20048;-75
2022/01/14 13:44:17;;;;;;;20.33;5.72;;;;;;;;;;4901915;29;20510;-76
2022/01/14 13:46:49;;;;;;;25.67;7.25;;;;;;;;;;4903103;29;20055;-79
2022/01/14 13:49:21;;;;;;;25.63;6.88;;;;;;;;;;4903256;29;20048;-76
2022/01/14 13:52:02;;;;;;;25.90;8.43;;;;;;;;;;4901042;29;20044;-76
2022/01/14 13:54:28;;;;;;;27.58;7.53;;;;;;;;;;4920224;29;20103;-77
2022/01/14 13:56:54;;;;;;;28.55;8.45;;;;;;;;;;4902462;29;20075;-75
2022/01/14 13:59:20;;;;;;;45.17;24.33;;;;;;;;;;4902971;29;20047;-77
2022/01/14 14:01:56;;;;;;;37.33;15.70;;;;;;;;;;4902824;29;20071;-74
2022/01/14 14:04:31;;;;;;;36.00;13.90;;;;;;;;;;4902726;29;20052;-76
2022/01/14 14:07:06;;;;;;;40.35;17.50;;;;;;;;;;4901985;29;20448;-76
2022/01/14 14:10:05;;;;;;;40.05;18.15;;;;;;;;;;4904022;29;20062;-76
2022/01/14 14:18:19;;;;;;;33.53;6.72;;;;;;;;;;4902381;29;20092;-76
2022/01/14 14:20:45;;;;;;;34.35;7.10;;;;;;;;;;4883157;29;20044;-76
2022/01/14 14:23:13;;;;;;;29.13;7.05;;;;;;;;;;4883328;29;20055;-75
2022/01/14 14:25:40;;;;;;;30.08;7.38;;;;;;;;;;4883255;29;20052;-76
2022/01/14 14:28:14;;;;;;;34.20;7.25;;;;;;;;;;4897953;29;20127;-76
2022/01/14 14:30:46;;;;;;;36.60;6.78;;;;;;;;;;4918863;29;20070;-75
2022/01/14 14:33:12;;;;;;;26.92;10.52;;;;;;;;;;4917824;29;20044;-75
2022/01/14 14:35:39;;;;;;;55.75;33.47;;;;;;;;;;4915902;29;20036;-75
2022/01/14 14:38:07;;;;;;;48.47;18.73;;;;;;;;;;4900565;29;20086;-77
2022/01/14 14:40:36;;;;;;;32.22;9.18;;;;;;;;;;4900938;29;20044;-78
2022/01/14 14:43:04;;;;;;;23.80;6.70;;;;;;;;;;4899464;29;20040;-75
2022/01/14 14:45:30;;;;;;;28.40;6.57;;;;;;;;;;4900897;29;20098;-73
2022/01/14 14:47:57;;;;;;;40.92;11.63;;;;;;;;;;4890451;29;20044;-73
2022/01/14 14:50:24;;;;;;;36.33;16.25;;;;;;;;;;4903997;29;20055;-73
2022/01/14 14:52:51;;;;;;;40.88;12.93;;;;;;;;;;4916736;29;20134;-73
2022/01/14 14:55:19;;;;;;;29.15;9.93;;;;;;;;;;4896779;29;20052;-75
2022/01/14 14:57:47;;;;;;;33.55;9.52;;;;;;;;;;4901520;29;20147;-77
2022/01/14 15:00:14;;;;;;;25.67;8.05;;;;;;;;;;4886834;29;20115;-76
2022/01/14 15:02:42;;;;;;;22.25;6.65;;;;;;;;;;4900552;29;20066;-76
2022/01/14 15:05:08;;;;;;;24.17;7.03;;;;;;;;;;4883931;29;20032;-73
2022/01/14 15:07:34;;;;;;;33.47;5.97;;;;;;;;;;4917059;29;20036;-77
2022/01/14 15:10:00;;;;;;;26.05;6.32;;;;;;;;;;4914877;29;20047;-75
2022/01/14 15:12:27;;;;;;;28.02;6.18;;;;;;;;;;4916920;29;20055;-76
2022/01/14 15:14:54;;;;;;;19.10;5.50;;;;;;;;;;4909220;29;20048;-77
2022/01/14 15:18:10;;;;;;;19.85;5.78;;;;;;;;;;4917592;29;20032;-77
2022/01/14 15:20:06;;;;;;;26.48;5.72;;;;;;;;;;4901472;29;20370;-75
2022/01/14 15:22:33;;;;;;;27.83;6.57;;;;;;;;;;4917508;29;20044;-73
2022/01/14 15:24:59;;;;;;;25.73;5.53;;;;;;;;;;4896654;29;20059;-76
2022/01/14 15:27:26;;;;;;;24.10;5.82;;;;;;;;;;4901100;29;20048;-76
2022/01/14 15:29:52;;;;;;;22.23;5.68;;;;;;;;;;4915591;29;20048;-76
2022/01/14 15:32:19;;;;;;;28.10;6.30;;;;;;;;;;4899812;29;20040;-77
2022/01/14 15:34:45;;;;;;;23.27;6.10;;;;;;;;;;4900326;29;20116;-76
2022/01/14 15:37:11;;;;;;;30.90;6.38;;;;;;;;;;4899092;29;20051;-77